createdAt,value
2022-11-15T00:00:45.525Z,13.60
2022-11-15T00:05:48.953Z,13.40
2022-11-15T00:10:52.362Z,13.10
2022-11-15T00:15:55.887Z,13.00
2022-11-15T00:20:59.326Z,13.30
2022-11-15T00:26:02.728Z,12.60
2022-11-15T00:31:06.139Z,12.50
2022-11-15T00:36:10.252Z,12.50
2022-11-15T00:46:17.094Z,12.70
2022-11-15T00:51:20.502Z,12.60
2022-11-15T00:56:23.909Z,13.80
2022-11-15T01:01:27.348Z,12.20
2022-11-15T01:06:31.996Z,11.80
2022-11-15T01:11:35.498Z,12.20
2022-11-15T01:16:38.893Z,13.10
2022-11-15T01:21:42.571Z,11.90
2022-11-15T01:26:45.966Z,12.10
2022-11-15T01:31:49.381Z,12.90
2022-11-15T01:36:52.800Z,12.90
2022-11-15T01:41:56.236Z,12.00
2022-11-15T01:46:59.646Z,12.10
2022-11-15T01:52:03.138Z,11.20
2022-11-15T01:57:06.610Z,11.00
2022-11-15T02:02:10.053Z,11.90
2022-11-15T02:07:13.521Z,11.00
2022-11-15T02:12:17.052Z,12.30
2022-11-15T02:17:20.458Z,11.20
2022-11-15T02:22:23.852Z,10.60
2022-11-15T02:27:27.262Z,10.80
2022-11-15T02:32:30.733Z,11.50
2022-11-15T02:37:34.134Z,10.90
2022-11-15T02:42:55.340Z,10.20
2022-11-15T02:47:58.885Z,10.80
2022-11-15T02:53:02.312Z,9.60
2022-11-15T02:58:05.722Z,10.20
2022-11-15T03:03:09.111Z,9.50
2022-11-15T03:08:12.651Z,8.90
2022-11-15T03:13:16.112Z,9.80
2022-11-15T03:18:19.541Z,9.00
2022-11-15T03:23:22.997Z,9.00
2022-11-15T03:28:26.412Z,8.50
2022-11-15T03:33:30.180Z,8.70
2022-11-15T03:38:34.117Z,9.20
2022-11-15T03:43:37.702Z,9.10
2022-11-15T03:48:41.102Z,9.40
2022-11-15T03:53:44.533Z,9.90
2022-11-15T03:58:48.044Z,9.60
2022-11-15T04:03:51.522Z,8.60
2022-11-15T04:08:54.933Z,9.50
2022-11-15T04:13:58.344Z,8.60
2022-11-15T04:19:19.484Z,9.20
2022-11-15T04:24:22.902Z,8.90
2022-11-15T04:29:38.768Z,9.10
2022-11-15T04:34:42.160Z,9.70
2022-11-15T04:39:45.700Z,9.90
2022-11-15T04:44:49.100Z,9.20
2022-11-15T04:49:52.593Z,9.30
2022-11-15T04:54:56.000Z,10.40
2022-11-15T04:59:59.444Z,10.50
2022-11-15T05:05:02.889Z,9.70
2022-11-15T05:10:06.290Z,10.00
2022-11-15T05:15:09.753Z,9.10
2022-11-15T05:20:13.156Z,8.70
2022-11-15T05:25:16.633Z,9.80
2022-11-15T05:30:20.186Z,9.70
2022-11-15T05:35:23.588Z,9.00
2022-11-15T05:40:27.096Z,10.00
2022-11-15T05:45:30.615Z,9.90
2022-11-15T05:50:34.029Z,10.00
2022-11-15T05:55:37.460Z,10.00
2022-11-15T06:00:40.920Z,10.60
2022-11-15T06:05:44.474Z,9.90
2022-11-15T06:10:47.868Z,10.60
2022-11-15T06:15:51.276Z,10.60
2022-11-15T06:20:54.679Z,10.50
2022-11-15T06:25:58.112Z,10.50
2022-11-15T06:31:01.668Z,10.10
2022-11-15T06:36:05.094Z,10.10
2022-11-15T06:41:08.530Z,10.50
2022-11-15T06:46:11.953Z,10.80
2022-11-15T06:51:15.470Z,11.00
2022-11-15T06:56:19.019Z,10.40
2022-11-15T07:01:23.339Z,11.50
2022-11-15T07:06:26.855Z,13.20
2022-11-15T07:11:30.290Z,12.00
2022-11-15T07:16:35.712Z,12.20
2022-11-15T07:21:39.194Z,12.00
2022-11-15T07:26:42.625Z,11.60
2022-11-15T07:31:46.283Z,11.40
2022-11-15T07:36:49.680Z,11.40
2022-11-15T07:42:13.509Z,12.60
2022-11-15T07:47:17.054Z,14.70
2022-11-15T07:52:20.469Z,19.40
2022-11-15T07:57:23.964Z,17.80
2022-11-15T08:02:30.446Z,19.50
2022-11-15T08:07:34.310Z,20.60
2022-11-15T08:12:37.782Z,22.30
2022-11-15T08:17:41.266Z,21.70
2022-11-15T08:22:44.661Z,21.10
2022-11-15T08:27:48.079Z,20.70
2022-11-15T08:32:51.496Z,20.70
2022-11-15T08:37:55.605Z,19.10
2022-11-15T08:42:59.740Z,19.40
2022-11-15T08:48:03.168Z,18.30
2022-11-15T08:53:06.604Z,18.50
2022-11-15T08:58:10.085Z,18.50
2022-11-15T09:03:13.609Z,21.20
2022-11-15T09:08:46.180Z,18.80
2022-11-15T09:13:40.387Z,17.50
2022-11-15T09:18:43.816Z,17.50
2022-11-15T09:23:47.227Z,19.50
2022-11-15T09:28:50.645Z,20.00
2022-11-15T09:33:54.063Z,19.60
2022-11-15T09:38:57.465Z,23.70
2022-11-15T09:44:00.869Z,23.40
2022-11-15T09:49:04.287Z,23.00
2022-11-15T09:59:32.535Z,21.60
2022-11-15T10:04:35.960Z,22.60
2022-11-15T10:09:39.382Z,21.30
2022-11-15T10:14:42.872Z,20.10
2022-11-15T10:19:47.301Z,20.50
2022-11-15T10:24:50.773Z,19.90
2022-11-15T10:29:54.189Z,20.80
2022-11-15T10:34:57.702Z,20.50
2022-11-15T10:40:01.141Z,20.20
2022-11-15T10:45:05.111Z,18.90
2022-11-15T10:50:08.634Z,18.50
2022-11-15T10:55:12.082Z,18.90
2022-11-15T11:00:15.518Z,19.10
2022-11-15T11:05:18.921Z,19.30
2022-11-15T11:10:49.956Z,17.90
2022-11-15T11:15:45.746Z,17.90
2022-11-15T11:20:49.162Z,17.70
2022-11-15T11:25:52.593Z,17.70
2022-11-15T11:30:55.997Z,18.40
2022-11-15T11:35:59.407Z,17.60
2022-11-15T11:41:03.274Z,18.60
2022-11-15T11:46:06.771Z,17.10
2022-11-15T11:51:10.198Z,17.70
2022-11-15T11:56:13.696Z,17.80
2022-11-15T12:01:17.365Z,17.20
2022-11-15T12:06:20.885Z,17.40
2022-11-15T12:11:24.304Z,16.50
2022-11-15T12:16:27.895Z,17.10
2022-11-15T12:21:33.329Z,18.30
2022-11-15T12:26:36.761Z,17.90
2022-11-15T12:31:40.188Z,15.40
2022-11-15T12:36:43.828Z,18.60
2022-11-15T12:41:47.240Z,16.90
2022-11-15T12:46:50.725Z,17.40
2022-11-15T12:51:54.368Z,16.30
2022-11-15T12:56:57.794Z,17.00
2022-11-15T13:02:01.226Z,16.80
2022-11-15T13:07:05.113Z,17.00
2022-11-15T13:12:08.721Z,17.90
2022-11-15T13:17:12.165Z,15.60
2022-11-15T13:22:33.449Z,16.10
2022-11-15T13:27:36.869Z,14.80
2022-11-15T13:32:40.740Z,14.60
2022-11-15T13:37:44.274Z,16.40
2022-11-15T13:42:47.707Z,14.30
2022-11-15T13:47:51.218Z,15.20
2022-11-15T13:52:54.668Z,15.40
2022-11-15T13:57:58.469Z,16.70
2022-11-15T14:08:22.952Z,16.30
2022-11-15T14:13:26.429Z,16.40
2022-11-15T14:18:30.080Z,17.10
2022-11-15T14:23:33.840Z,18.90
2022-11-15T14:28:40.126Z,17.60
2022-11-15T14:33:43.550Z,18.50
2022-11-15T14:38:47.001Z,18.30
2022-11-15T14:43:50.437Z,18.40
2022-11-15T14:48:53.854Z,19.20
2022-11-15T14:53:57.308Z,19.20
2022-11-15T14:59:01.182Z,19.60
2022-11-15T15:04:04.610Z,19.40
2022-11-15T15:09:08.014Z,19.10
2022-11-15T15:14:11.413Z,18.70
2022-11-15T15:19:15.153Z,22.80
2022-11-15T15:24:18.583Z,19.70
2022-11-15T15:29:21.984Z,20.00
2022-11-15T15:34:25.422Z,22.40
2022-11-15T15:39:28.825Z,20.60
2022-11-15T15:44:32.305Z,19.40
2022-11-15T15:49:35.719Z,21.30
2022-11-15T15:54:39.120Z,22.10
2022-11-15T15:59:43.075Z,20.30
2022-11-15T16:04:46.460Z,23.10
2022-11-15T16:10:02.300Z,22.90
2022-11-15T16:15:05.847Z,22.60
2022-11-15T16:20:09.275Z,23.10
2022-11-15T16:25:12.673Z,24.70
2022-11-15T16:30:16.109Z,23.20
2022-11-15T16:35:20.831Z,23.60
2022-11-15T16:40:24.305Z,25.20
2022-11-15T16:45:29.316Z,24.30
2022-11-15T16:50:35.095Z,25.80
2022-11-15T16:55:38.523Z,25.60
2022-11-15T17:00:41.958Z,26.40
2022-11-15T17:05:45.466Z,36.80
2022-11-15T17:10:48.884Z,27.30
2022-11-15T17:15:52.292Z,28.50
2022-11-15T17:20:55.708Z,28.60
2022-11-15T17:26:12.077Z,30.20
2022-11-15T17:31:22.507Z,27.70
2022-11-15T17:36:25.991Z,29.90
2022-11-15T17:41:29.395Z,29.70
2022-11-15T17:46:33.576Z,33.00
2022-11-15T17:56:40.402Z,31.40
2022-11-15T18:01:43.826Z,34.90
2022-11-15T18:06:47.322Z,33.00
2022-11-15T18:11:51.866Z,32.30
2022-11-15T18:16:55.285Z,34.10
2022-11-15T18:21:58.958Z,32.30
2022-11-15T18:27:02.390Z,34.10
2022-11-15T18:32:11.422Z,34.70
2022-11-15T18:37:14.911Z,34.20
2022-11-15T18:42:18.316Z,42.00
2022-11-15T18:47:21.728Z,42.20
2022-11-15T18:52:25.194Z,42.60
2022-11-15T18:57:28.710Z,39.70
2022-11-15T19:02:32.133Z,38.10
2022-11-15T19:07:37.213Z,38.40
2022-11-15T19:12:40.724Z,38.10
2022-11-15T19:17:44.191Z,39.10
2022-11-15T19:22:47.630Z,41.30
2022-11-15T19:27:51.153Z,38.20
2022-11-15T19:32:54.579Z,37.10
2022-11-15T19:37:57.967Z,36.80
2022-11-15T19:43:01.385Z,39.70
2022-11-15T19:48:04.819Z,41.10
2022-11-15T19:53:08.250Z,37.30
2022-11-15T19:58:11.723Z,38.90
2022-11-15T20:03:15.137Z,36.00
2022-11-15T20:08:18.600Z,39.00
2022-11-15T20:13:22.040Z,39.80
2022-11-15T20:18:25.445Z,39.70
2022-11-15T20:23:28.956Z,38.60
2022-11-15T20:28:32.711Z,36.90
2022-11-15T20:33:39.174Z,37.50
2022-11-15T20:38:43.383Z,37.10
2022-11-15T20:43:47.089Z,37.40
2022-11-15T20:48:50.502Z,36.90
2022-11-15T20:53:53.896Z,38.30
2022-11-15T20:58:57.731Z,39.30
2022-11-15T21:04:01.148Z,38.30
2022-11-15T21:09:22.180Z,38.50
2022-11-15T21:14:25.608Z,39.30
2022-11-15T21:19:35.570Z,39.00
2022-11-15T21:24:40.221Z,38.00
2022-11-15T21:29:45.726Z,40.50
2022-11-15T21:34:49.212Z,38.50
2022-11-15T21:39:52.606Z,37.40
2022-11-15T21:44:56.026Z,37.40
2022-11-15T21:49:59.481Z,39.00
2022-11-15T21:55:02.888Z,37.10
2022-11-15T22:00:24.063Z,36.30
2022-11-15T22:10:48.826Z,36.80
2022-11-15T22:15:53.666Z,37.90
2022-11-15T22:20:57.409Z,38.80
2022-11-15T22:26:01.023Z,37.70
2022-11-15T22:31:04.653Z,39.00
2022-11-15T22:36:08.263Z,38.00
2022-11-15T22:41:11.898Z,36.60
2022-11-15T22:46:15.517Z,38.00
2022-11-15T22:51:19.130Z,37.90
2022-11-15T22:56:22.674Z,38.70
2022-11-15T23:01:26.166Z,39.60
2022-11-15T23:06:29.671Z,40.80
2022-11-15T23:11:50.827Z,37.80
2022-11-15T23:16:54.446Z,38.50
2022-11-15T23:22:15.871Z,38.20
2022-11-15T23:27:20.755Z,38.10
2022-11-15T23:32:38.108Z,39.60
2022-11-15T23:37:41.611Z,39.60
2022-11-15T23:42:45.222Z,39.30
2022-11-15T23:47:48.853Z,38.00
2022-11-15T23:52:52.722Z,40.40
2022-11-15T23:57:56.351Z,38.20
